sensor_id;sensor_type;location;lat;lon;timestamp;pressure;altitude;pressure_sealevel;temperature;humidity
28344;BME280;15597;50.914;6.638;2024-01-25T00:00:41;102022.44;;;12.00;60.77
28344;BME280;15597;50.914;6.638;2024-01-25T00:03:07;102016.28;;;11.96;61.05
28344;BME280;15597;50.914;6.638;2024-01-25T00:05:32;102028.56;;;12.02;60.96
28344;BME280;15597;50.914;6.638;2024-01-25T00:07:58;102016.31;;;12.01;60.70
28344;BME280;15597;50.914;6.638;2024-01-25T00:10:24;102020.69;;;12.02;60.96
28344;BME280;15597;50.914;6.638;2024-01-25T00:12:49;102011.03;;;12.03;60.78
28344;BME280;15597;50.914;6.638;2024-01-25T00:15:15;102018.94;;;12.01;60.85
28344;BME280;15597;50.914;6.638;2024-01-25T00:17:41;102015.41;;;11.99;60.89
28344;BME280;15597;50.914;6.638;2024-01-25T00:20:09;102015.41;;;11.99;60.80
28344;BME280;15597;50.914;6.638;2024-01-25T00:22:36;102015.41;;;11.99;60.97
28344;BME280;15597;50.914;6.638;2024-01-25T00:25:03;102011.94;;;12.00;60.58
28344;BME280;15597;50.914;6.638;2024-01-25T00:27:29;102014.53;;;12.05;60.76
28344;BME280;15597;50.914;6.638;2024-01-25T00:29:55;102003.19;;;12.01;60.81
28344;BME280;15597;50.914;6.638;2024-01-25T00:32:20;101997.94;;;11.96;60.44
28344;BME280;15597;50.914;6.638;2024-01-25T00:34:46;102005.81;;;11.93;60.84
28344;BME280;15597;50.914;6.638;2024-01-25T00:37:12;102006.69;;;11.94;61.22
28344;BME280;15597;50.914;6.638;2024-01-25T00:39:38;102004.97;;;11.90;61.26
28344;BME280;15597;50.914;6.638;2024-01-25T00:42:05;102021.56;;;11.92;61.20
28344;BME280;15597;50.914;6.638;2024-01-25T00:44:34;102014.56;;;11.92;60.85
28344;BME280;15597;50.914;6.638;2024-01-25T00:47:00;102006.69;;;11.94;60.98
28344;BME280;15597;50.914;6.638;2024-01-25T00:49:26;102018.94;;;11.92;61.25
28344;BME280;15597;50.914;6.638;2024-01-25T00:51:59;102022.44;;;11.91;61.38
28344;BME280;15597;50.914;6.638;2024-01-25T00:54:28;102025.06;;;11.92;61.07
28344;BME280;15597;50.914;6.638;2024-01-25T00:56:54;102019.81;;;11.94;61.08
28344;BME280;15597;50.914;6.638;2024-01-25T00:59:20;102023.31;;;11.96;61.23
28344;BME280;15597;50.914;6.638;2024-01-25T01:01:47;102031.19;;;11.96;60.97
28344;BME280;15597;50.914;6.638;2024-01-25T01:04:16;102020.69;;;11.94;60.88
28344;BME280;15597;50.914;6.638;2024-01-25T01:06:42;102018.94;;;11.92;61.00
28344;BME280;15597;50.914;6.638;2024-01-25T01:09:08;102033.81;;;11.93;61.15
28344;BME280;15597;50.914;6.638;2024-01-25T01:11:36;102038.19;;;11.91;61.13
28344;BME280;15597;50.914;6.638;2024-01-25T01:14:01;102031.19;;;11.90;61.10
28344;BME280;15597;50.914;6.638;2024-01-25T01:16:27;102041.69;;;11.90;61.29
28344;BME280;15597;50.914;6.638;2024-01-25T01:18:56;102039.06;;;11.88;61.24
28344;BME280;15597;50.914;6.638;2024-01-25T01:21:22;102037.31;;;11.87;60.86
28344;BME280;15597;50.914;6.638;2024-01-25T01:23:47;102039.06;;;11.85;61.10
28344;BME280;15597;50.914;6.638;2024-01-25T01:26:13;102032.97;;;11.84;60.94
28344;BME280;15597;50.914;6.638;2024-01-25T01:28:39;102032.06;;;11.84;61.40
28344;BME280;15597;50.914;6.638;2024-01-25T01:31:04;102024.22;;;11.86;61.06
28344;BME280;15597;50.914;6.638;2024-01-25T01:33:30;102032.97;;;11.81;61.04
28344;BME280;15597;50.914;6.638;2024-01-25T01:35:55;102042.59;;;11.81;61.43
28344;BME280;15597;50.914;6.638;2024-01-25T01:38:21;102034.72;;;11.79;61.22
28344;BME280;15597;50.914;6.638;2024-01-25T01:40:46;102034.75;;;11.76;61.27
28344;BME280;15597;50.914;6.638;2024-01-25T01:43:19;102036.50;;;11.73;61.01
28344;BME280;15597;50.914;6.638;2024-01-25T01:45:45;102037.38;;;11.72;61.12
28344;BME280;15597;50.914;6.638;2024-01-25T01:48:11;102046.13;;;11.72;61.31
28344;BME280;15597;50.914;6.638;2024-01-25T01:50:37;102040.88;;;11.72;61.18
28344;BME280;15597;50.914;6.638;2024-01-25T01:53:03;102039.13;;;11.73;61.08
28344;BME280;15597;50.914;6.638;2024-01-25T01:55:30;102055.72;;;11.73;61.27
28344;BME280;15597;50.914;6.638;2024-01-25T01:57:56;102051.34;;;11.71;61.38
28344;BME280;15597;50.914;6.638;2024-01-25T02:00:24;102047.84;;;11.72;61.34
28344;BME280;15597;50.914;6.638;2024-01-25T02:02:50;102043.50;;;11.72;61.25
28344;BME280;15597;50.914;6.638;2024-01-25T02:05:15;102042.63;;;11.73;60.93
28344;BME280;15597;50.914;6.638;2024-01-25T02:07:42;102049.63;;;11.74;61.18
28344;BME280;15597;50.914;6.638;2024-01-25T02:10:08;102052.25;;;11.71;61.04
28344;BME280;15597;50.914;6.638;2024-01-25T02:12:34;102064.47;;;11.72;61.10
28344;BME280;15597;50.914;6.638;2024-01-25T02:15:00;102062.72;;;11.71;61.06
28344;BME280;15597;50.914;6.638;2024-01-25T02:17:26;102057.47;;;11.74;61.05
28344;BME280;15597;50.914;6.638;2024-01-25T02:19:51;102054.84;;;11.69;61.25
28344;BME280;15597;50.914;6.638;2024-01-25T02:22:19;102046.13;;;11.67;61.20
28344;BME280;15597;50.914;6.638;2024-01-25T02:24:44;102063.59;;;11.72;61.10
28344;BME280;15597;50.914;6.638;2024-01-25T02:27:10;102071.47;;;11.70;60.83
28344;BME280;15597;50.914;6.638;2024-01-25T02:29:36;102078.47;;;11.74;60.82
28344;BME280;15597;50.914;6.638;2024-01-25T02:32:03;102080.19;;;11.71;60.80
28344;BME280;15597;50.914;6.638;2024-01-25T02:34:28;102082.81;;;11.74;60.99
28344;BME280;15597;50.914;6.638;2024-01-25T02:36:54;102081.09;;;11.71;61.04
28344;BME280;15597;50.914;6.638;2024-01-25T02:39:20;102094.19;;;11.73;60.70
28344;BME280;15597;50.914;6.638;2024-01-25T02:41:45;102108.19;;;11.70;60.97
28344;BME280;15597;50.914;6.638;2024-01-25T02:44:11;102112.56;;;11.71;61.27
28344;BME280;15597;50.914;6.638;2024-01-25T02:46:37;102101.19;;;11.69;61.04
28344;BME280;15597;50.914;6.638;2024-01-25T02:49:04;102101.19;;;11.69;61.19
28344;BME280;15597;50.914;6.638;2024-01-25T02:51:29;102114.28;;;11.71;60.86
28344;BME280;15597;50.914;6.638;2024-01-25T02:53:55;102109.94;;;11.68;60.91
28344;BME280;15597;50.914;6.638;2024-01-25T02:56:21;102102.94;;;11.67;60.76
28344;BME280;15597;50.914;6.638;2024-01-25T02:58:46;102109.06;;;11.64;61.12
28344;BME280;15597;50.914;6.638;2024-01-25T03:01:12;102117.78;;;11.63;61.02
28344;BME280;15597;50.914;6.638;2024-01-25T03:03:38;102109.91;;;11.59;61.07
28344;BME280;15597;50.914;6.638;2024-01-25T03:06:06;102116.03;;;11.58;61.10
28344;BME280;15597;50.914;6.638;2024-01-25T03:08:32;102123.91;;;11.54;60.92
28344;BME280;15597;50.914;6.638;2024-01-25T03:10:57;102118.66;;;11.54;61.00
28344;BME280;15597;50.914;6.638;2024-01-25T03:13:23;102118.66;;;11.54;60.98
28344;BME280;15597;50.914;6.638;2024-01-25T03:15:49;102117.81;;;11.51;61.11
28344;BME280;15597;50.914;6.638;2024-01-25T03:18:14;102115.19;;;11.49;60.99
28344;BME280;15597;50.914;6.638;2024-01-25T03:20:40;102109.94;;;11.48;61.31
28344;BME280;15597;50.914;6.638;2024-01-25T03:23:06;102111.69;;;11.47;61.08
28344;BME280;15597;50.914;6.638;2024-01-25T03:25:31;102096.84;;;11.45;60.93
28344;BME280;15597;50.914;6.638;2024-01-25T03:27:57;102100.31;;;11.42;61.10
28344;BME280;15597;50.914;6.638;2024-01-25T03:30:23;102094.22;;;11.40;61.16
28344;BME280;15597;50.914;6.638;2024-01-25T03:32:48;102092.47;;;11.36;61.29
28344;BME280;15597;50.914;6.638;2024-01-25T03:35:14;102098.59;;;11.35;61.20
28344;BME280;15597;50.914;6.638;2024-01-25T03:37:39;102090.72;;;11.32;61.42
28344;BME280;15597;50.914;6.638;2024-01-25T03:40:06;102093.38;;;11.36;61.44
28344;BME280;15597;50.914;6.638;2024-01-25T03:42:31;102083.75;;;11.31;61.29
28344;BME280;15597;50.914;6.638;2024-01-25T03:44:57;102093.38;;;11.33;61.49
28344;BME280;15597;50.914;6.638;2024-01-25T03:47:23;102086.38;;;11.31;61.61
28344;BME280;15597;50.914;6.638;2024-01-25T03:49:48;102081.13;;;11.29;61.52
28344;BME280;15597;50.914;6.638;2024-01-25T03:52:14;102075.88;;;11.24;61.73
28344;BME280;15597;50.914;6.638;2024-01-25T03:54:40;102081.13;;;11.24;61.48
28344;BME280;15597;50.914;6.638;2024-01-25T03:57:05;102081.16;;;11.20;61.67
28344;BME280;15597;50.914;6.638;2024-01-25T03:59:31;102081.16;;;11.20;61.73
28344;BME280;15597;50.914;6.638;2024-01-25T04:01:57;102094.25;;;11.17;61.66
28344;BME280;15597;50.914;6.638;2024-01-25T04:04:22;102092.47;;;11.14;61.52
28344;BME280;15597;50.914;6.638;2024-01-25T04:06:48;102099.47;;;11.15;61.99
28344;BME280;15597;50.914;6.638;2024-01-25T04:09:14;102095.97;;;11.10;61.60
28344;BME280;15597;50.914;6.638;2024-01-25T04:11:40;102104.72;;;11.12;61.79
28344;BME280;15597;50.914;6.638;2024-01-25T04:14:06;102113.44;;;11.11;62.25
28344;BME280;15597;50.914;6.638;2024-01-25T04:16:33;102109.94;;;11.06;61.91
28344;BME280;15597;50.914;6.638;2024-01-25T04:18:59;102105.56;;;11.05;62.49
28344;BME280;15597;50.914;6.638;2024-01-25T04:21:24;102106.44;;;11.04;61.92
28344;BME280;15597;50.914;6.638;2024-01-25T04:23:50;102111.66;;;11.02;62.43
28344;BME280;15597;50.914;6.638;2024-01-25T04:26:16;102117.78;;;11.01;62.09
28344;BME280;15597;50.914;6.638;2024-01-25T04:28:42;102122.16;;;11.01;62.16
28344;BME280;15597;50.914;6.638;2024-01-25T04:31:07;102112.53;;;11.01;62.18
28344;BME280;15597;50.914;6.638;2024-01-25T04:33:33;102121.28;;;11.03;62.05
28344;BME280;15597;50.914;6.638;2024-01-25T04:35:59;102114.28;;;10.99;62.00
28344;BME280;15597;50.914;6.638;2024-01-25T04:38:25;102125.66;;;11.00;62.06
28344;BME280;15597;50.914;6.638;2024-01-25T04:40:50;102131.75;;;10.99;62.14
28344;BME280;15597;50.914;6.638;2024-01-25T04:43:16;102115.16;;;10.96;62.10
28344;BME280;15597;50.914;6.638;2024-01-25T04:45:42;102122.16;;;10.98;62.35
28344;BME280;15597;50.914;6.638;2024-01-25T04:48:07;102125.66;;;10.96;62.03
28344;BME280;15597;50.914;6.638;2024-01-25T04:50:33;102127.41;;;10.98;62.24
28344;BME280;15597;50.914;6.638;2024-01-25T04:52:58;102129.13;;;10.95;62.21
28344;BME280;15597;50.914;6.638;2024-01-25T04:55:27;102132.63;;;10.94;61.98
28344;BME280;15597;50.914;6.638;2024-01-25T04:57:53;102137.00;;;10.95;62.05
28344;BME280;15597;50.914;6.638;2024-01-25T05:00:20;102130.88;;;10.96;62.13
28344;BME280;15597;50.914;6.638;2024-01-25T05:02:47;102134.38;;;10.89;62.40
28344;BME280;15597;50.914;6.638;2024-01-25T05:05:12;102133.47;;;10.89;62.58
28344;BME280;15597;50.914;6.638;2024-01-25T05:07:38;102123.00;;;10.92;62.31
28344;BME280;15597;50.914;6.638;2024-01-25T05:10:04;102128.25;;;10.95;61.99
28344;BME280;15597;50.914;6.638;2024-01-25T05:12:30;102124.78;;;10.98;61.93
28344;BME280;15597;50.914;6.638;2024-01-25T05:14:55;102122.13;;;10.96;61.81
28344;BME280;15597;50.914;6.638;2024-01-25T05:17:21;102134.38;;;10.99;61.75
28344;BME280;15597;50.914;6.638;2024-01-25T05:19:46;102130.00;;;10.99;61.57
28344;BME280;15597;50.914;6.638;2024-01-25T05:22:12;102118.66;;;10.99;61.73
28344;BME280;15597;50.914;6.638;2024-01-25T05:24:38;102127.38;;;10.94;61.83
28344;BME280;15597;50.914;6.638;2024-01-25T05:27:03;102126.50;;;10.97;61.71
28344;BME280;15597;50.914;6.638;2024-01-25T05:29:29;102136.09;;;10.98;61.30
28344;BME280;15597;50.914;6.638;2024-01-25T05:31:54;102137.00;;;11.00;61.45
28344;BME280;15597;50.914;6.638;2024-01-25T05:34:21;102127.41;;;10.98;61.45
28344;BME280;15597;50.914;6.638;2024-01-25T05:36:46;102128.25;;;10.98;61.37
28344;BME280;15597;50.914;6.638;2024-01-25T05:39:13;102132.63;;;10.98;61.38
28344;BME280;15597;50.914;6.638;2024-01-25T05:41:38;102126.53;;;10.99;60.96
28344;BME280;15597;50.914;6.638;2024-01-25T05:44:04;102128.25;;;11.01;61.12
28344;BME280;15597;50.914;6.638;2024-01-25T05:46:31;102127.41;;;11.04;61.22
28344;BME280;15597;50.914;6.638;2024-01-25T05:48:57;102133.50;;;11.06;61.22
28344;BME280;15597;50.914;6.638;2024-01-25T05:51:22;102134.38;;;11.05;61.08
28344;BME280;15597;50.914;6.638;2024-01-25T05:53:48;102130.03;;;11.04;61.31
28344;BME280;15597;50.914;6.638;2024-01-25T05:56:14;102135.25;;;11.05;61.01
28344;BME280;15597;50.914;6.638;2024-01-25T05:58:39;102139.63;;;11.05;60.93
28344;BME280;15597;50.914;6.638;2024-01-25T06:01:06;102143.97;;;11.04;60.93
28344;BME280;15597;50.914;6.638;2024-01-25T06:03:33;102129.16;;;11.02;60.66
28344;BME280;15597;50.914;6.638;2024-01-25T06:05:58;102131.78;;;11.05;61.03
28344;BME280;15597;50.914;6.638;2024-01-25T06:08:30;102131.75;;;11.00;61.02
28344;BME280;15597;50.914;6.638;2024-01-25T06:10:56;102137.88;;;11.02;60.92
28344;BME280;15597;50.914;6.638;2024-01-25T06:13:24;102143.97;;;11.00;60.58
28344;BME280;15597;50.914;6.638;2024-01-25T06:15:50;102153.59;;;10.98;60.61
28344;BME280;15597;50.914;6.638;2024-01-25T06:18:16;102157.06;;;10.96;60.59
28344;BME280;15597;50.914;6.638;2024-01-25T06:20:42;102168.44;;;10.99;60.61
28344;BME280;15597;50.914;6.638;2024-01-25T06:23:09;102164.94;;;10.96;61.00
28344;BME280;15597;50.914;6.638;2024-01-25T06:25:35;102172.78;;;11.00;60.98
28344;BME280;15597;50.914;6.638;2024-01-25T06:28:02;102188.53;;;11.03;60.78
28344;BME280;15597;50.914;6.638;2024-01-25T06:30:29;102177.16;;;11.01;61.06
28344;BME280;15597;50.914;6.638;2024-01-25T06:32:55;102183.28;;;11.00;60.69
28344;BME280;15597;50.914;6.638;2024-01-25T06:35:22;102185.88;;;10.98;61.06
28344;BME280;15597;50.914;6.638;2024-01-25T06:37:48;102188.50;;;10.96;60.78
28344;BME280;15597;50.914;6.638;2024-01-25T06:40:14;102175.38;;;10.92;60.61
28344;BME280;15597;50.914;6.638;2024-01-25T06:42:41;102186.72;;;10.86;60.71
28344;BME280;15597;50.914;6.638;2024-01-25T06:45:08;102185.00;;;10.88;60.64
28344;BME280;15597;50.914;6.638;2024-01-25T06:47:35;102191.97;;;10.86;60.68
28344;BME280;15597;50.914;6.638;2024-01-25T06:50:01;102183.22;;;10.81;60.85
28344;BME280;15597;50.914;6.638;2024-01-25T06:52:27;102192.84;;;10.82;60.58
28344;BME280;15597;50.914;6.638;2024-01-25T06:54:53;102195.44;;;10.82;60.55
28344;BME280;15597;50.914;6.638;2024-01-25T06:57:19;102187.56;;;10.80;60.75
28344;BME280;15597;50.914;6.638;2024-01-25T06:59:45;102182.34;;;10.76;60.74
28344;BME280;15597;50.914;6.638;2024-01-25T07:02:11;102185.81;;;10.76;61.08
28344;BME280;15597;50.914;6.638;2024-01-25T07:04:37;102188.44;;;10.72;60.78
28344;BME280;15597;50.914;6.638;2024-01-25T07:07:07;102196.28;;;10.72;60.96
28344;BME280;15597;50.914;6.638;2024-01-25T07:09:32;102195.41;;;10.66;60.87
28344;BME280;15597;50.914;6.638;2024-01-25T07:11:58;102202.38;;;10.64;60.58
28344;BME280;15597;50.914;6.638;2024-01-25T07:14:24;102198.00;;;10.60;60.81
28344;BME280;15597;50.914;6.638;2024-01-25T07:16:50;102206.72;;;10.64;61.06
28344;BME280;15597;50.914;6.638;2024-01-25T07:19:15;102211.09;;;10.63;61.19
28344;BME280;15597;50.914;6.638;2024-01-25T07:21:41;102198.84;;;10.58;60.87
28344;BME280;15597;50.914;6.638;2024-01-25T07:24:11;102204.97;;;10.63;61.13
28344;BME280;15597;50.914;6.638;2024-01-25T07:26:37;102214.59;;;10.62;61.07
28344;BME280;15597;50.914;6.638;2024-01-25T07:29:03;102204.09;;;10.62;60.98
28344;BME280;15597;50.914;6.638;2024-01-25T07:31:28;102204.13;;;10.69;60.71
28344;BME280;15597;50.914;6.638;2024-01-25T07:33:54;102211.13;;;10.70;61.04
28344;BME280;15597;50.914;6.638;2024-01-25T07:36:20;102205.00;;;10.71;60.66
28344;BME280;15597;50.914;6.638;2024-01-25T07:38:46;102202.41;;;10.71;60.62
28344;BME280;15597;50.914;6.638;2024-01-25T07:41:13;102193.66;;;10.69;60.45
28344;BME280;15597;50.914;6.638;2024-01-25T07:43:38;102188.44;;;10.69;60.35
28344;BME280;15597;50.914;6.638;2024-01-25T07:46:04;102191.03;;;10.70;60.38
28344;BME280;15597;50.914;6.638;2024-01-25T07:48:30;102199.78;;;10.71;60.37
28344;BME280;15597;50.914;6.638;2024-01-25T07:50:56;102195.41;;;10.70;60.38
28344;BME280;15597;50.914;6.638;2024-01-25T07:53:22;102194.53;;;10.72;60.34
28344;BME280;15597;50.914;6.638;2024-01-25T07:55:48;102203.25;;;10.71;60.37
28344;BME280;15597;50.914;6.638;2024-01-25T07:58:15;102211.13;;;10.70;60.10
28344;BME280;15597;50.914;6.638;2024-01-25T08:00:41;102211.09;;;10.66;60.78
28344;BME280;15597;50.914;6.638;2024-01-25T08:03:11;102215.47;;;10.71;60.95
28344;BME280;15597;50.914;6.638;2024-01-25T08:05:37;102221.59;;;10.70;60.69
28344;BME280;15597;50.914;6.638;2024-01-25T08:08:03;102223.31;;;10.68;60.41
28344;BME280;15597;50.914;6.638;2024-01-25T08:10:28;102232.06;;;10.70;60.44
28344;BME280;15597;50.914;6.638;2024-01-25T08:12:55;102230.31;;;10.69;60.20
28344;BME280;15597;50.914;6.638;2024-01-25T08:15:20;102223.31;;;10.64;60.79
28344;BME280;15597;50.914;6.638;2024-01-25T08:17:46;102226.81;;;10.66;60.59
28344;BME280;15597;50.914;6.638;2024-01-25T08:20:13;102231.16;;;10.64;60.62
28344;BME280;15597;50.914;6.638;2024-01-25T08:22:40;102225.00;;;10.59;60.84
28344;BME280;15597;50.914;6.638;2024-01-25T08:25:07;102223.22;;;10.49;60.96
28344;BME280;15597;50.914;6.638;2024-01-25T08:27:33;102225.84;;;10.50;61.09
28344;BME280;15597;50.914;6.638;2024-01-25T08:29:59;102212.75;;;10.49;61.34
28344;BME280;15597;50.914;6.638;2024-01-25T08:32:25;102213.63;;;10.49;61.01
28344;BME280;15597;50.914;6.638;2024-01-25T08:34:50;102212.75;;;10.52;60.99
28344;BME280;15597;50.914;6.638;2024-01-25T08:37:16;102213.63;;;10.49;61.50
28344;BME280;15597;50.914;6.638;2024-01-25T08:39:42;102223.22;;;10.52;61.43
28344;BME280;15597;50.914;6.638;2024-01-25T08:42:11;102225.81;;;10.49;61.42
28344;BME280;15597;50.914;6.638;2024-01-25T08:44:38;102219.75;;;10.53;61.61
28344;BME280;15597;50.914;6.638;2024-01-25T08:47:05;102225.00;;;10.56;61.37
28344;BME280;15597;50.914;6.638;2024-01-25T08:49:31;102211.03;;;10.54;61.43
28344;BME280;15597;50.914;6.638;2024-01-25T08:51:57;102216.25;;;10.54;61.47
28344;BME280;15597;50.914;6.638;2024-01-25T08:54:22;102217.13;;;10.53;61.44
28344;BME280;15597;50.914;6.638;2024-01-25T08:56:48;102212.75;;;10.52;61.65
28344;BME280;15597;50.914;6.638;2024-01-25T08:59:14;102207.50;;;10.49;61.17
28344;BME280;15597;50.914;6.638;2024-01-25T09:01:40;102215.41;;;10.54;61.74
28344;BME280;15597;50.914;6.638;2024-01-25T09:04:06;102215.38;;;10.52;61.47
28344;BME280;15597;50.914;6.638;2024-01-25T09:06:31;102204.03;;;10.53;61.92
28344;BME280;15597;50.914;6.638;2024-01-25T09:08:57;102204.06;;;10.56;61.76
28344;BME280;15597;50.914;6.638;2024-01-25T09:11:22;102186.59;;;10.55;61.92
28344;BME280;15597;50.914;6.638;2024-01-25T09:13:48;102191.84;;;10.55;61.61
28344;BME280;15597;50.914;6.638;2024-01-25T09:16:16;102189.22;;;10.55;62.17
28344;BME280;15597;50.914;6.638;2024-01-25T09:18:42;102207.59;;;10.61;61.41
28344;BME280;15597;50.914;6.638;2024-01-25T09:21:08;102198.81;;;10.59;62.01
28344;BME280;15597;50.914;6.638;2024-01-25T09:23:36;102197.97;;;10.62;61.92
28344;BME280;15597;50.914;6.638;2024-01-25T09:26:02;102188.41;;;10.62;61.53
28344;BME280;15597;50.914;6.638;2024-01-25T09:28:28;102192.75;;;10.65;61.73
28344;BME280;15597;50.914;6.638;2024-01-25T09:30:54;102195.41;;;10.70;61.59
28344;BME280;15597;50.914;6.638;2024-01-25T09:33:19;102205.00;;;10.72;62.18
28344;BME280;15597;50.914;6.638;2024-01-25T09:35:45;102210.25;;;10.72;61.81
28344;BME280;15597;50.914;6.638;2024-01-25T09:38:13;102217.25;;;10.75;61.89
28344;BME280;15597;50.914;6.638;2024-01-25T09:40:39;102229.47;;;10.79;61.46
28344;BME280;15597;50.914;6.638;2024-01-25T09:43:04;102230.34;;;10.81;61.90
28344;BME280;15597;50.914;6.638;2024-01-25T09:45:31;102234.72;;;10.87;61.63
28344;BME280;15597;50.914;6.638;2024-01-25T09:47:57;102239.13;;;10.89;61.57
28344;BME280;15597;50.914;6.638;2024-01-25T09:50:23;102239.97;;;10.87;61.33
28344;BME280;15597;50.914;6.638;2024-01-25T09:52:54;102240.84;;;10.84;61.46
28344;BME280;15597;50.914;6.638;2024-01-25T09:55:26;102241.69;;;10.85;61.86
28344;BME280;15597;50.914;6.638;2024-01-25T09:57:55;102237.38;;;10.88;62.16
28344;BME280;15597;50.914;6.638;2024-01-25T10:00:23;102250.47;;;10.94;61.71
28344;BME280;15597;50.914;6.638;2024-01-25T10:02:50;102244.38;;;10.92;61.96
28344;BME280;15597;50.914;6.638;2024-01-25T10:05:17;102240.00;;;10.94;61.65
28344;BME280;15597;50.914;6.638;2024-01-25T10:07:45;102235.66;;;10.96;61.45
28344;BME280;15597;50.914;6.638;2024-01-25T10:10:12;102246.13;;;10.93;61.38
28344;BME280;15597;50.914;6.638;2024-01-25T10:12:39;102235.63;;;10.87;61.44
28344;BME280;15597;50.914;6.638;2024-01-25T10:15:05;102229.50;;;10.87;61.81
28344;BME280;15597;50.914;6.638;2024-01-25T10:17:31;102234.75;;;10.91;61.58
28344;BME280;15597;50.914;6.638;2024-01-25T10:19:57;102242.63;;;10.98;62.13
28344;BME280;15597;50.914;6.638;2024-01-25T10:22:23;102230.41;;;11.00;61.66
28344;BME280;15597;50.914;6.638;2024-01-25T10:24:49;102238.28;;;11.00;61.71
28344;BME280;15597;50.914;6.638;2024-01-25T10:27:19;102235.69;;;11.09;61.79
28344;BME280;15597;50.914;6.638;2024-01-25T10:29:46;102233.94;;;11.08;62.06
28344;BME280;15597;50.914;6.638;2024-01-25T10:32:12;102228.72;;;11.17;61.88
28344;BME280;15597;50.914;6.638;2024-01-25T10:34:38;102226.97;;;11.19;61.91
28344;BME280;15597;50.914;6.638;2024-01-25T10:37:07;102215.63;;;11.17;61.91
28344;BME280;15597;50.914;6.638;2024-01-25T10:39:33;102216.50;;;11.25;61.95
28344;BME280;15597;50.914;6.638;2024-01-25T10:42:00;102215.63;;;11.27;61.94
28344;BME280;15597;50.914;6.638;2024-01-25T10:44:26;102224.41;;;11.33;61.93
28344;BME280;15597;50.914;6.638;2024-01-25T10:46:52;102220.00;;;11.37;61.81
28344;BME280;15597;50.914;6.638;2024-01-25T10:49:20;102216.53;;;11.41;61.68
28344;BME280;15597;50.914;6.638;2024-01-25T10:51:47;102207.78;;;11.48;61.58
28344;BME280;15597;50.914;6.638;2024-01-25T10:54:14;102204.31;;;11.49;61.48
28344;BME280;15597;50.914;6.638;2024-01-25T10:56:46;102194.72;;;11.50;61.47
28344;BME280;15597;50.914;6.638;2024-01-25T10:59:13;102183.31;;;11.55;61.64
28344;BME280;15597;50.914;6.638;2024-01-25T11:01:45;102169.34;;;11.60;61.46
28344;BME280;15597;50.914;6.638;2024-01-25T11:04:18;102179.81;;;11.63;61.55
28344;BME280;15597;50.914;6.638;2024-01-25T11:06:45;102166.72;;;11.67;61.49
28344;BME280;15597;50.914;6.638;2024-01-25T11:09:17;102166.72;;;11.74;61.32
28344;BME280;15597;50.914;6.638;2024-01-25T11:11:46;102171.09;;;11.82;61.46
28344;BME280;15597;50.914;6.638;2024-01-25T11:14:14;102159.72;;;11.87;61.68
28344;BME280;15597;50.914;6.638;2024-01-25T11:16:43;102162.34;;;11.93;61.53
28344;BME280;15597;50.914;6.638;2024-01-25T11:19:17;102150.09;;;11.92;61.25
28344;BME280;15597;50.914;6.638;2024-01-25T11:21:47;102145.72;;;11.94;60.94
28344;BME280;15597;50.914;6.638;2024-01-25T11:24:14;102153.59;;;11.97;60.85
28344;BME280;15597;50.914;6.638;2024-01-25T11:26:42;102156.22;;;11.94;61.15
28344;BME280;15597;50.914;6.638;2024-01-25T11:29:09;102153.59;;;11.94;60.98
28344;BME280;15597;50.914;6.638;2024-01-25T11:31:35;102136.97;;;11.93;60.79
28344;BME280;15597;50.914;6.638;2024-01-25T11:34:01;102128.22;;;11.91;61.27
28344;BME280;15597;50.914;6.638;2024-01-25T11:36:27;102129.09;;;11.98;61.27
28344;BME280;15597;50.914;6.638;2024-01-25T11:38:53;102137.88;;;12.00;61.33
28344;BME280;15597;50.914;6.638;2024-01-25T11:41:19;102126.47;;;12.03;61.23
28344;BME280;15597;50.914;6.638;2024-01-25T11:43:45;102122.97;;;12.08;61.11
28344;BME280;15597;50.914;6.638;2024-01-25T11:46:11;102130.81;;;12.18;60.95
28344;BME280;15597;50.914;6.638;2024-01-25T11:48:39;102119.44;;;12.23;60.98
28344;BME280;15597;50.914;6.638;2024-01-25T11:51:06;102111.53;;;12.31;61.01
28344;BME280;15597;50.914;6.638;2024-01-25T11:53:32;102103.66;;;12.33;60.70
28344;BME280;15597;50.914;6.638;2024-01-25T11:55:58;102105.38;;;12.32;60.72
28344;BME280;15597;50.914;6.638;2024-01-25T11:58:23;102116.75;;;12.39;61.00
28344;BME280;15597;50.914;6.638;2024-01-25T12:00:49;102107.97;;;12.46;60.60
28344;BME280;15597;50.914;6.638;2024-01-25T12:03:16;102081.69;;;12.48;60.72
28344;BME280;15597;50.914;6.638;2024-01-25T12:05:43;102086.03;;;12.55;60.69
28344;BME280;15597;50.914;6.638;2024-01-25T12:08:12;102100.84;;;12.62;60.59
28344;BME280;15597;50.914;6.638;2024-01-25T12:10:39;102093.84;;;12.64;60.43
28344;BME280;15597;50.914;6.638;2024-01-25T12:13:08;102092.94;;;12.70;60.12
28344;BME280;15597;50.914;6.638;2024-01-25T12:15:35;102094.66;;;12.77;60.50
28344;BME280;15597;50.914;6.638;2024-01-25T12:18:01;102092.03;;;12.77;60.19
28344;BME280;15597;50.914;6.638;2024-01-25T12:20:28;102095.50;;;12.84;60.24
28344;BME280;15597;50.914;6.638;2024-01-25T12:22:54;102101.59;;;12.84;59.65
28344;BME280;15597;50.914;6.638;2024-01-25T12:25:19;102104.25;;;12.83;59.55
28344;BME280;15597;50.914;6.638;2024-01-25T12:27:47;102096.41;;;12.77;59.66
28344;BME280;15597;50.914;6.638;2024-01-25T12:30:15;102092.06;;;12.73;59.62
28344;BME280;15597;50.914;6.638;2024-01-25T12:32:40;102070.16;;;12.77;59.68
28344;BME280;15597;50.914;6.638;2024-01-25T12:35:06;102060.53;;;12.74;59.71
28344;BME280;15597;50.914;6.638;2024-01-25T12:37:34;102076.25;;;12.82;59.59
28344;BME280;15597;50.914;6.638;2024-01-25T12:39:59;102084.13;;;12.82;59.33
28344;BME280;15597;50.914;6.638;2024-01-25T12:42:25;102080.63;;;12.78;59.13
28344;BME280;15597;50.914;6.638;2024-01-25T12:44:52;102076.28;;;12.79;59.60